Time;durP1;ratioP1;P1;durP2;ratioP2;P2;SDS_P1;SDS_P2;PMS_P1;PMS_P2;Temp;Humidity;BMP_temperature;BMP_pressure;BME280_temperature;BME280_humidity;BME280_pressure;Samples;Min_cycle;Max_cycle;Signal;HPM_P1;HPM_P2
2023/01/28 05:00:18;;;;;;;0.63;0.63;;;1.90;99.90;;;;;;5977914;23;20274;-68
2023/01/28 05:02:45;;;;;;;0.65;0.60;;;1.80;99.90;;;;;;4910449;29;20233;-69
2023/01/28 05:05:12;;;;;;;0.30;0.30;;;1.80;99.90;;;;;;4920589;29;20671;-68
2023/01/28 05:07:39;;;;;;;0.20;0.20;;;1.80;99.90;;;;;;4925667;29;20235;-68
2023/01/28 05:10:06;;;;;;;0.45;0.45;;;1.80;99.90;;;;;;4924561;29;20332;-69
2023/01/28 05:12:33;;;;;;;0.32;0.32;;;1.70;99.90;;;;;;4900097;29;20231;-66
2023/01/28 05:15:00;;;;;;;0.20;0.20;;;1.70;99.90;;;;;;4896386;29;20661;-69
2023/01/28 05:17:28;;;;;;;0.50;0.30;;;1.70;99.90;;;;;;4902397;29;20207;-70
2023/01/28 05:19:55;;;;;;;0.50;0.50;;;1.60;99.90;;;;;;4905319;29;20226;-69
2023/01/28 05:22:22;;;;;;;0.40;0.40;;;1.60;99.90;;;;;;4902441;29;20258;-68
2023/01/28 05:24:48;;;;;;;0.50;0.50;;;1.60;99.90;;;;;;4901791;29;20208;-68
2023/01/28 05:27:15;;;;;;;0.73;0.73;;;1.60;99.90;;;;;;4902733;29;20595;-69
2023/01/28 05:29:43;;;;;;;0.65;0.65;;;1.60;99.90;;;;;;4905051;29;20323;-70
2023/01/28 05:32:10;;;;;;;0.10;0.10;;;1.50;99.90;;;;;;4892159;29;20232;-68
2023/01/28 05:34:38;;;;;;;0.10;0.10;;;1.50;99.90;;;;;;4909521;29;20225;-69
2023/01/28 05:37:04;;;;;;;0.20;0.20;;;1.50;99.90;;;;;;4901616;29;20203;-70
2023/01/28 05:39:31;;;;;;;1.27;0.65;;;1.50;99.90;;;;;;4889053;29;20215;-70
2023/01/28 05:41:58;;;;;;;0.40;0.40;;;1.50;99.90;;;;;;4891919;29;20238;-68
2023/01/28 05:44:25;;;;;;;0.45;0.45;;;1.50;99.90;;;;;;4900804;29;20223;-69
2023/01/28 05:46:52;;;;;;;0.17;0.17;;;1.50;99.90;;;;;;4896119;29;20215;-67
2023/01/28 05:49:18;;;;;;;0.20;0.20;;;1.50;99.90;;;;;;4900905;29;20543;-68
2023/01/28 05:51:47;;;;;;;0.30;0.30;;;1.50;99.90;;;;;;4905173;29;20242;-68
2023/01/28 05:54:14;;;;;;;0.20;0.20;;;1.50;99.90;;;;;;4894833;29;20211;-68
2023/01/28 05:56:41;;;;;;;0.70;0.70;;;1.50;99.90;;;;;;4897976;29;20560;-68
2023/01/28 05:59:09;;;;;;;7.00;0.95;;;1.50;99.90;;;;;;4901910;29;20329;-67
2023/01/28 06:01:35;;;;;;;1.02;1.02;;;1.50;99.90;;;;;;4900728;29;20243;-70
2023/01/28 06:04:02;;;;;;;0.50;0.50;;;1.50;99.90;;;;;;4893871;29;20649;-68
2023/01/28 06:06:30;;;;;;;1.10;1.08;;;1.50;99.90;;;;;;4900771;29;20286;-69
2023/01/28 06:08:58;;;;;;;0.30;0.30;;;1.50;99.90;;;;;;4894214;29;20235;-68
2023/01/28 06:11:24;;;;;;;1.60;1.58;;;1.40;99.90;;;;;;4897502;29;20249;-68
2023/01/28 06:13:51;;;;;;;1.42;1.42;;;1.40;99.90;;;;;;4904609;29;20631;-70
2023/01/28 06:16:18;;;;;;;0.55;0.55;;;1.40;99.90;;;;;;4895310;29;20210;-69
2023/01/28 06:18:45;;;;;;;0.73;0.45;;;1.30;99.90;;;;;;4897597;29;20215;-69
2023/01/28 06:21:12;;;;;;;0.40;0.40;;;1.30;99.90;;;;;;4899518;29;20306;-70
2023/01/28 06:23:38;;;;;;;0.45;0.45;;;1.30;99.90;;;;;;4903831;29;20225;-68
2023/01/28 06:26:06;;;;;;;0.20;0.20;;;1.20;99.90;;;;;;4908523;29;20217;-68
2023/01/28 06:28:33;;;;;;;1.17;1.17;;;1.20;99.90;;;;;;4907488;29;20428;-69
2023/01/28 06:31:00;;;;;;;0.40;0.40;;;1.20;99.90;;;;;;4899144;29;20232;-69
2023/01/28 06:33:27;;;;;;;0.65;0.65;;;1.20;99.90;;;;;;4903374;29;20220;-70
2023/01/28 06:35:54;;;;;;;0.68;0.68;;;1.10;99.90;;;;;;4905205;29;20305;-69
2023/01/28 06:38:21;;;;;;;0.65;0.65;;;1.10;99.90;;;;;;4899693;29;20199;-69
2023/01/28 06:40:51;;;;;;;0.30;0.30;;;1.10;99.90;;;;;;4901928;29;20227;-70
2023/01/28 06:43:20;;;;;;;1.95;0.65;;;1.10;99.90;;;;;;4902111;29;20282;-71
2023/01/28 06:45:47;;;;;;;0.45;0.45;;;1.10;99.90;;;;;;4894972;29;20218;-69
2023/01/28 06:48:13;;;;;;;0.80;0.80;;;1.10;99.90;;;;;;4900207;29;20234;-69
2023/01/28 06:50:40;;;;;;;1.50;1.50;;;1.00;99.90;;;;;;4901924;29;20233;-69
2023/01/28 06:53:07;;;;;;;0.10;0.10;;;1.00;99.90;;;;;;4895719;29;20214;-69
2023/01/28 06:55:34;;;;;;;11.23;2.75;;;1.00;99.90;;;;;;4903083;29;20222;-69
2023/01/28 06:58:00;;;;;;;1.00;1.00;;;1.00;99.90;;;;;;4893583;29;20702;-69
2023/01/28 07:00:28;;;;;;;2.05;1.95;;;1.00;99.90;;;;;;4898382;29;20228;-69
2023/01/28 07:02:56;;;;;;;0.30;0.30;;;1.00;99.90;;;;;;4893261;29;20670;-69
2023/01/28 07:05:23;;;;;;;0.80;0.73;;;1.00;99.90;;;;;;4902223;29;20217;-69
2023/01/28 07:07:50;;;;;;;0.85;0.85;;;1.00;99.90;;;;;;4895386;29;20236;-69
2023/01/28 07:10:17;;;;;;;0.85;0.85;;;1.00;99.90;;;;;;4898827;29;20564;-69
2023/01/28 07:12:44;;;;;;;0.28;0.28;;;1.00;99.90;;;;;;4895328;29;20210;-68
2023/01/28 07:15:12;;;;;;;1.50;1.27;;;1.00;99.90;;;;;;4895736;29;20214;-70
2023/01/28 07:17:41;;;;;;;1.67;1.15;;;1.00;99.90;;;;;;4900082;29;20274;-70
2023/01/28 07:20:11;;;;;;;0.32;0.32;;;1.00;99.90;;;;;;4901810;29;20224;-68
2023/01/28 07:22:39;;;;;;;0.70;0.70;;;0.90;99.90;;;;;;4894786;29;20208;-68
2023/01/28 07:25:06;;;;;;;0.70;0.70;;;0.90;99.90;;;;;;4900719;29;20618;-68
2023/01/28 07:27:34;;;;;;;0.85;0.85;;;0.90;99.90;;;;;;4900834;29;20580;-69
2023/01/28 07:30:00;;;;;;;0.80;0.80;;;0.80;99.90;;;;;;4907193;29;20217;-68
2023/01/28 07:32:27;;;;;;;1.73;1.30;;;0.80;99.90;;;;;;4900885;29;20648;-69
2023/01/28 07:34:55;;;;;;;0.77;0.77;;;0.80;99.90;;;;;;4907090;29;20688;-69
2023/01/28 07:37:22;;;;;;;0.30;0.30;;;0.80;99.90;;;;;;4900104;29;20218;-69
2023/01/28 07:39:49;;;;;;;0.30;0.30;;;0.80;99.90;;;;;;4902339;29;20303;-68
2023/01/28 07:42:17;;;;;;;1.55;0.95;;;0.80;99.90;;;;;;4898317;29;20238;-69
2023/01/28 07:44:43;;;;;;;0.85;0.82;;;0.90;99.90;;;;;;4894825;29;20667;-68
2023/01/28 07:47:10;;;;;;;0.70;0.70;;;0.90;99.90;;;;;;4897269;29;20338;-70
2023/01/28 07:49:38;;;;;;;1.10;1.10;;;0.90;99.90;;;;;;4902548;29;20700;-69
2023/01/28 07:52:06;;;;;;;0.70;0.70;;;0.90;99.90;;;;;;4896905;29;20576;-69
2023/01/28 07:54:33;;;;;;;0.30;0.30;;;1.00;99.90;;;;;;4900714;29;20293;-70
2023/01/28 07:57:00;;;;;;;0.77;0.63;;;1.00;99.90;;;;;;4890608;29;20294;-67
2023/01/28 07:59:27;;;;;;;0.60;0.60;;;1.00;99.90;;;;;;4897752;29;20203;-69
2023/01/28 08:01:54;;;;;;;0.43;0.40;;;1.10;99.90;;;;;;4896191;29;20250;-69
2023/01/28 08:04:21;;;;;;;0.20;0.20;;;1.10;99.90;;;;;;4904345;29;20218;-67
2023/01/28 08:06:47;;;;;;;0.70;0.70;;;1.10;99.90;;;;;;4902058;29;20218;-67
2023/01/28 08:09:15;;;;;;;0.73;0.73;;;1.20;99.90;;;;;;4890580;29;20235;-68
2023/01/28 08:11:42;;;;;;;0.40;0.40;;;1.20;99.90;;;;;;4893754;29;20544;-68
2023/01/28 08:14:10;;;;;;;1.08;0.88;;;1.20;99.90;;;;;;4902207;29;20297;-67
2023/01/28 08:16:37;;;;;;;1.17;0.47;;;1.20;99.90;;;;;;4895313;29;20222;-67
2023/01/28 08:19:04;;;;;;;0.68;0.68;;;1.30;99.90;;;;;;4901762;29;20213;-68
2023/01/28 08:21:30;;;;;;;1.00;0.93;;;1.30;99.90;;;;;;4893820;29;20231;-66
2023/01/28 08:23:57;;;;;;;0.35;0.35;;;1.30;99.90;;;;;;4911894;29;20225;-68
2023/01/28 08:26:25;;;;;;;3.40;0.90;;;1.30;99.90;;;;;;4897733;29;20255;-67
2023/01/28 08:28:52;;;;;;;2.63;1.67;;;1.40;99.90;;;;;;4902629;29;20238;-68
2023/01/28 08:31:19;;;;;;;3.05;1.65;;;1.40;99.90;;;;;;4897692;29;20269;-68
2023/01/28 08:33:45;;;;;;;3.80;1.40;;;1.40;99.90;;;;;;4890290;29;20219;-68
2023/01/28 08:36:12;;;;;;;0.60;0.60;;;1.40;99.90;;;;;;4891962;29;20211;-67
2023/01/28 08:38:39;;;;;;;2.53;1.15;;;1.40;99.90;;;;;;4890358;29;20229;-69
2023/01/28 08:41:05;;;;;;;1.00;0.65;;;1.50;99.90;;;;;;4893065;29;20235;-67
2023/01/28 08:43:34;;;;;;;1.45;1.45;;;1.50;99.90;;;;;;4903820;29;20210;-68
2023/01/28 08:46:00;;;;;;;1.05;1.05;;;1.40;99.90;;;;;;4905772;29;20204;-67
2023/01/28 08:48:27;;;;;;;3.05;1.33;;;1.40;99.90;;;;;;4895423;29;20310;-68
2023/01/28 08:50:58;;;;;;;1.30;1.30;;;1.50;99.90;;;;;;4904677;29;20583;-67
2023/01/28 08:53:25;;;;;;;0.80;0.80;;;1.50;99.90;;;;;;4895267;29;20207;-70
2023/01/28 08:55:54;;;;;;;0.93;0.93;;;1.50;99.90;;;;;;4905282;29;20226;-68
2023/01/28 08:58:20;;;;;;;1.02;1.02;;;1.50;99.90;;;;;;4896097;29;20215;-66
2023/01/28 09:00:49;;;;;;;0.57;0.52;;;1.50;99.90;;;;;;4897075;29;20311;-68
2023/01/28 09:03:17;;;;;;;1.08;0.68;;;1.60;99.90;;;;;;4902965;29;20242;-68
2023/01/28 09:05:44;;;;;;;0.45;0.32;;;1.60;99.90;;;;;;4908883;29;20203;-67
2023/01/28 09:08:12;;;;;;;4.13;0.73;;;1.70;99.90;;;;;;4908818;29;20237;-67
2023/01/28 09:10:40;;;;;;;2.38;0.88;;;1.70;99.90;;;;;;4908214;29;20232;-67
2023/01/28 09:13:09;;;;;;;0.65;0.65;;;1.80;99.90;;;;;;4906392;29;20215;-68
2023/01/28 09:15:36;;;;;;;1.20;1.20;;;1.80;99.90;;;;;;4909340;29;20224;-68
2023/01/28 09:18:05;;;;;;;2.72;1.23;;;1.90;99.90;;;;;;4910237;29;20279;-69
2023/01/28 09:20:32;;;;;;;0.57;0.57;;;2.00;99.90;;;;;;4907533;29;20215;-67
2023/01/28 09:22:59;;;;;;;0.43;0.43;;;2.00;99.90;;;;;;4905609;29;20223;-70
2023/01/28 09:25:26;;;;;;;0.52;0.52;;;2.10;99.90;;;;;;4903324;29;20223;-71
2023/01/28 09:27:53;;;;;;;1.05;1.05;;;2.10;99.90;;;;;;4907819;29;20211;-68
2023/01/28 09:30:20;;;;;;;0.30;0.30;;;2.10;99.90;;;;;;4901588;29;20218;-69
2023/01/28 09:32:50;;;;;;;0.65;0.65;;;2.10;99.90;;;;;;4908979;29;20230;-69
2023/01/28 09:35:19;;;;;;;1.25;1.25;;;2.20;99.90;;;;;;4907304;29;20337;-69
2023/01/28 09:37:46;;;;;;;0.95;0.95;;;2.20;99.90;;;;;;4910706;29;20215;-67
2023/01/28 09:40:17;;;;;;;0.50;0.50;;;2.30;99.90;;;;;;4905148;29;20221;-67
2023/01/28 09:43:04;;;;;;;0.50;0.50;;;2.40;99.90;;;;;;4912977;29;20208;-68
2023/01/28 09:45:38;;;;;;;0.57;0.57;;;2.40;99.90;;;;;;4910323;29;20238;-67
2023/01/28 09:48:10;;;;;;;1.30;1.30;;;2.50;99.90;;;;;;4913466;29;20787;-68
2023/01/28 09:50:41;;;;;;;0.40;0.40;;;2.50;99.90;;;;;;4898130;29;20763;-67
2023/01/28 09:53:13;;;;;;;1.58;0.45;;;2.60;99.90;;;;;;4907241;29;20216;-67
2023/01/28 09:55:44;;;;;;;0.40;0.40;;;2.70;99.90;;;;;;4902277;29;20249;-67
2023/01/28 09:58:14;;;;;;;0.50;0.50;;;2.60;99.90;;;;;;4900090;29;20232;-68
2023/01/28 10:00:50;;;;;;;1.23;1.10;;;2.80;99.90;;;;;;4900328;29;20788;-69
2023/01/28 10:03:42;;;;;;;0.45;0.40;;;2.80;99.90;;;;;;4898807;29;20306;-68
2023/01/28 10:06:22;;;;;;;2.90;1.45;;;2.80;99.90;;;;;;4903229;29;20684;-69
2023/01/28 10:09:18;;;;;;;1.17;1.17;;;2.80;99.90;;;;;;4894752;29;20264;-68
2023/01/28 10:12:05;;;;;;;1.38;1.13;;;2.80;99.90;;;;;;4895480;29;20653;-68
2023/01/28 10:14:46;;;;;;;23.13;1.23;;;2.80;99.90;;;;;;4895195;29;20252;-68
2023/01/28 10:17:18;;;;;;;0.60;0.60;;;2.80;99.90;;;;;;4907551;29;20215;-68
2023/01/28 10:19:50;;;;;;;0.35;0.35;;;2.90;99.90;;;;;;4911700;29;20260;-67
2023/01/28 10:22:22;;;;;;;1.80;1.70;;;2.80;99.90;;;;;;4905192;29;20231;-67
2023/01/28 10:24:53;;;;;;;1.10;1.10;;;2.70;99.90;;;;;;4906543;29;20214;-68
2023/01/28 10:27:23;;;;;;;1.35;1.35;;;2.60;99.90;;;;;;4899186;29;20229;-67
2023/01/28 10:29:51;;;;;;;0.43;0.43;;;2.60;99.90;;;;;;4896854;29;20231;-67
2023/01/28 10:32:26;;;;;;;0.70;0.70;;;2.70;99.90;;;;;;4902159;29;20231;-68
2023/01/28 10:34:53;;;;;;;0.40;0.40;;;2.70;99.90;;;;;;4882902;29;20218;-68
2023/01/28 10:37:21;;;;;;;1.83;1.60;;;2.70;99.90;;;;;;4892569;29;20226;-68
2023/01/28 10:39:48;;;;;;;4.30;4.18;;;2.80;99.90;;;;;;4896226;29;20630;-68
2023/01/28 10:42:26;;;;;;;2.60;2.13;;;2.80;99.90;;;;;;4895317;29;20239;-68
2023/01/28 10:44:55;;;;;;;2.25;2.10;;;2.70;99.90;;;;;;4903761;29;20211;-68
2023/01/28 10:47:28;;;;;;;3.83;2.65;;;2.60;99.90;;;;;;4905896;29;20217;-68
2023/01/28 10:49:58;;;;;;;2.58;1.98;;;2.70;99.90;;;;;;4914472;29;20227;-67
2023/01/28 10:52:26;;;;;;;3.05;2.78;;;2.60;99.90;;;;;;4896918;29;20231;-68
2023/01/28 10:55:00;;;;;;;1.20;1.20;;;2.50;99.90;;;;;;4898480;29;20205;-68
2023/01/28 10:57:27;;;;;;;1.27;1.15;;;2.40;99.90;;;;;;4902422;29;20215;-68
2023/01/28 10:59:54;;;;;;;1.20;1.20;;;2.40;99.90;;;;;;4894682;29;20210;-68
2023/01/28 11:02:31;;;;;;;3.63;3.42;;;2.40;99.90;;;;;;4898753;29;20262;-68
2023/01/28 11:05:03;;;;;;;1.42;1.42;;;2.50;99.90;;;;;;4895735;29;20218;-67
2023/01/28 11:07:31;;;;;;;6.90;1.63;;;2.50;99.90;;;;;;4896565;29;20259;-68
2023/01/28 11:09:58;;;;;;;1.33;1.23;;;2.60;99.90;;;;;;4894977;29;20219;-67
2023/01/28 11:12:27;;;;;;;1.20;1.20;;;2.70;99.90;;;;;;4896005;29;20227;-68
2023/01/28 11:14:55;;;;;;;1.35;1.35;;;2.70;99.90;;;;;;4897069;29;20696;-68
2023/01/28 11:17:24;;;;;;;2.25;2.25;;;2.70;99.90;;;;;;4895101;29;20223;-67
2023/01/28 11:19:52;;;;;;;1.42;1.42;;;2.70;99.90;;;;;;4962962;23;20240;-66
2023/01/28 11:22:26;;;;;;;1.52;1.40;;;2.70;99.90;;;;;;4952617;28;20546;-67
2023/01/28 11:24:55;;;;;;;2.70;1.98;;;2.70;99.90;;;;;;4950076;28;20205;-67
2023/01/28 11:27:31;;;;;;;1.73;1.63;;;2.70;99.90;;;;;;4951185;29;20218;-67
2023/01/28 11:30:02;;;;;;;1.52;1.42;;;2.70;99.90;;;;;;4944283;29;20228;-67
2023/01/28 11:32:30;;;;;;;3.03;2.92;;;2.80;99.90;;;;;;4952500;28;20603;-67
2023/01/28 11:34:58;;;;;;;2.80;2.60;;;2.90;99.90;;;;;;4949629;28;20209;-67
2023/01/28 11:37:26;;;;;;;8.38;3.33;;;2.90;99.90;;;;;;4949213;28;20205;-68
2023/01/28 11:40:19;;;;;;;0.85;0.85;;;2.90;99.90;;;;;;4951917;28;20228;-67
2023/01/28 11:42:47;;;;;;;1.73;1.23;;;2.80;99.90;;;;;;4950844;29;20285;-68
2023/01/28 11:45:16;;;;;;;1.40;1.40;;;2.70;99.90;;;;;;4948728;29;20706;-67
2023/01/28 11:48:09;;;;;;;1.63;1.52;;;2.70;99.90;;;;;;4949783;28;20205;-67
2023/01/28 11:50:44;;;;;;;3.40;1.90;;;2.70;99.90;;;;;;4948983;28;20225;-67
2023/01/28 11:53:39;;;;;;;0.90;0.90;;;2.80;99.90;;;;;;4942805;29;20555;-67
2023/01/28 11:56:43;;;;;;;1.48;1.48;;;2.70;99.90;;;;;;4946294;28;20568;-68
2023/01/28 11:59:27;;;;;;;0.90;0.90;;;2.80;99.90;;;;;;4942886;29;20236;-67
2023/01/28 12:02:01;;;;;;;1.10;1.10;;;2.70;99.90;;;;;;4948555;28;20216;-68
2023/01/28 12:04:52;;;;;;;1.20;1.20;;;2.80;99.90;;;;;;4944710;28;20212;-68
2023/01/28 12:07:32;;;;;;;0.50;0.50;;;2.70;99.90;;;;;;4952143;29;20201;-68
2023/01/28 12:10:03;;;;;;;2.03;1.92;;;2.80;99.90;;;;;;4942980;28;20240;-66
2023/01/28 12:12:46;;;;;;;1.40;1.30;;;2.80;99.90;;;;;;4949803;29;20213;-67
2023/01/28 12:15:47;;;;;;;0.60;0.60;;;2.80;99.90;;;;;;4954289;28;20507;-68
2023/01/28 12:18:27;;;;;;;1.40;1.40;;;2.90;99.90;;;;;;4944656;28;20280;-66
2023/01/28 12:21:05;;;;;;;5.65;1.40;;;2.90;99.90;;;;;;4954383;28;20210;-67
2023/01/28 12:24:05;;;;;;;1.95;1.35;;;3.00;99.90;;;;;;4953385;28;20217;-66
2023/01/28 12:26:40;;;;;;;1.60;1.48;;;2.90;99.90;;;;;;4952357;28;20225;-66
2023/01/28 12:29:22;;;;;;;1.92;1.77;;;2.90;99.90;;;;;;4953111;29;21407;-66
2023/01/28 12:32:20;;;;;;;3.13;1.70;;;2.90;99.90;;;;;;4953788;28;20239;-66
2023/01/28 12:35:06;;;;;;;5.32;2.58;;;3.00;99.90;;;;;;4954178;28;20210;-67
2023/01/28 12:37:45;;;;;;;2.10;2.00;;;3.00;99.90;;;;;;4955271;28;20247;-66
2023/01/28 12:40:45;;;;;;;1.45;1.35;;;3.00;99.90;;;;;;4953996;28;20306;-66
2023/01/28 12:43:18;;;;;;;1.85;1.85;;;3.00;99.90;;;;;;4936277;29;20213;-67
2023/01/28 12:45:52;;;;;;;3.47;3.03;;;3.10;99.90;;;;;;4950738;29;20210;-66
2023/01/28 12:48:27;;;;;;;1.63;1.52;;;3.10;99.90;;;;;;4954827;28;20213;-66
2023/01/28 12:50:58;;;;;;;1.45;1.45;;;3.20;99.90;;;;;;4955388;28;20313;-66
2023/01/28 12:53:30;;;;;;;1.08;1.08;;;3.10;99.90;;;;;;4954874;29;20663;-66
2023/01/28 12:56:03;;;;;;;1.20;0.75;;;3.20;99.90;;;;;;4953437;28;20612;-68
2023/01/28 12:58:38;;;;;;;3.40;2.17;;;3.10;99.90;;;;;;4954257;28;20229;-68
2023/01/28 13:01:11;;;;;;;1.13;1.10;;;3.10;99.90;;;;;;4955099;29;20224;-68
2023/01/28 13:03:45;;;;;;;0.88;0.88;;;3.10;99.90;;;;;;4954308;29;20223;-67
2023/01/28 13:06:16;;;;;;;1.60;1.60;;;3.20;99.90;;;;;;4953895;28;20631;-67
2023/01/28 13:08:43;;;;;;;1.77;1.75;;;3.20;99.90;;;;;;4954969;28;20241;-67
2023/01/28 13:11:15;;;;;;;1.75;1.48;;;3.20;99.90;;;;;;4953593;29;20602;-67
2023/01/28 13:13:44;;;;;;;2.20;1.85;;;3.20;99.90;;;;;;4954196;29;20673;-67
2023/01/28 13:16:13;;;;;;;2.28;2.08;;;3.20;99.90;;;;;;4953541;28;20615;-67
2023/01/28 13:18:45;;;;;;;0.75;0.73;;;3.30;99.90;;;;;;4954227;28;20578;-67
2023/01/28 13:21:17;;;;;;;1.08;1.08;;;3.20;99.90;;;;;;4954812;29;20213;-67
2023/01/28 13:23:45;;;;;;;1.25;1.15;;;3.20;99.90;;;;;;4954456;29;20205;-68
2023/01/28 13:26:29;;;;;;;1.90;1.75;;;3.20;99.90;;;;;;4951508;28;20221;-67
2023/01/28 13:29:17;;;;;;;2.95;2.65;;;3.30;99.90;;;;;;4946891;28;20235;-66
2023/01/28 13:31:46;;;;;;;0.98;0.98;;;3.30;99.90;;;;;;4954826;29;20658;-66
2023/01/28 13:34:28;;;;;;;0.63;0.63;;;3.30;99.90;;;;;;4952995;29;20244;-66
2023/01/28 13:36:57;;;;;;;0.47;0.47;;;3.30;99.90;;;;;;4946155;29;20531;-68
2023/01/28 13:39:26;;;;;;;1.75;1.65;;;3.30;99.90;;;;;;4951282;28;20611;-70
2023/01/28 13:41:54;;;;;;;1.67;1.63;;;3.30;99.90;;;;;;4954073;28;20202;-67
2023/01/28 13:44:26;;;;;;;2.05;1.95;;;3.30;99.90;;;;;;4952693;29;20205;-66
2023/01/28 13:46:57;;;;;;;5.15;3.28;;;3.30;99.90;;;;;;4953240;28;20202;-66
2023/01/28 13:49:30;;;;;;;1.23;1.23;;;3.30;99.90;;;;;;4953307;28;20225;-66
2023/01/28 13:52:04;;;;;;;2.22;2.13;;;3.30;99.90;;;;;;4954480;29;20217;-67
2023/01/28 13:54:33;;;;;;;2.05;0.85;;;3.30;99.90;;;;;;4947944;28;20231;-67
2023/01/28 13:57:36;;;;;;;1.23;1.23;;;3.30;99.90;;;;;;4953971;29;20639;-67
2023/01/28 14:00:11;;;;;;;1.50;1.45;;;3.30;99.90;;;;;;4947366;29;20221;-67
2023/01/28 14:03:20;;;;;;;2.13;1.83;;;3.30;99.90;;;;;;4953719;28;20219;-67
2023/01/28 14:06:11;;;;;;;2.95;2.75;;;3.30;99.90;;;;;;4952032;29;20705;-67
2023/01/28 14:09:03;;;;;;;2.00;1.90;;;3.40;99.90;;;;;;4948601;28;20242;-67
2023/01/28 14:12:12;;;;;;;1.17;1.17;;;3.40;99.90;;;;;;4953361;28;20233;-67
2023/01/28 14:15:09;;;;;;;1.48;1.23;;;3.30;99.90;;;;;;4928777;28;20225;-67
2023/01/28 14:17:43;;;;;;;1.15;1.10;;;3.30;99.90;;;;;;4953323;29;20205;-67
2023/01/28 14:20:18;;;;;;;1.02;1.00;;;3.30;99.90;;;;;;4952251;28;20229;-67
2023/01/28 14:22:45;;;;;;;0.70;0.70;;;3.30;99.90;;;;;;4952832;28;20558;-67
2023/01/28 14:25:15;;;;;;;1.30;1.20;;;3.30;99.90;;;;;;4951602;28;20225;-68
2023/01/28 14:27:47;;;;;;;1.15;1.15;;;3.30;99.90;;;;;;4953107;28;20205;-67
2023/01/28 14:30:23;;;;;;;1.75;1.65;;;3.30;99.90;;;;;;4952864;28;20317;-67
2023/01/28 14:32:52;;;;;;;1.40;1.40;;;3.30;99.90;;;;;;4951735;29;20300;-67
2023/01/28 14:35:27;;;;;;;1.45;1.42;;;3.30;99.90;;;;;;4950409;28;20221;-67
2023/01/28 14:37:54;;;;;;;0.80;0.80;;;3.20;99.90;;;;;;4948120;29;20581;-67
2023/01/28 14:40:22;;;;;;;5.35;2.58;;;3.20;99.90;;;;;;4951942;28;20232;-67
2023/01/28 14:42:52;;;;;;;3.05;0.98;;;3.20;99.90;;;;;;4952683;29;20205;-68
2023/01/28 14:45:32;;;;;;;1.80;1.70;;;3.20;99.90;;;;;;4951487;29;20551;-67
2023/01/28 14:48:19;;;;;;;0.65;0.65;;;3.20;99.90;;;;;;4949122;29;20217;-67
2023/01/28 14:51:01;;;;;;;1.42;1.33;;;3.30;99.90;;;;;;4950058;29;20272;-67
2023/01/28 14:53:56;;;;;;;1.42;1.38;;;3.30;99.90;;;;;;4951433;28;20235;-67
2023/01/28 14:56:32;;;;;;;0.88;0.88;;;3.30;99.90;;;;;;4945132;29;20207;-67
2023/01/28 14:59:02;;;;;;;2.20;1.00;;;3.30;99.90;;;;;;4951197;28;20542;-67
2023/01/28 15:01:31;;;;;;;0.60;0.60;;;3.30;99.90;;;;;;4951449;29;20209;-68
2023/01/28 15:03:58;;;;;;;0.90;0.90;;;3.40;99.90;;;;;;4950605;29;20210;-67
2023/01/28 15:06:30;;;;;;;1.58;1.48;;;3.30;99.90;;;;;;4951759;29;20205;-67
2023/01/28 15:09:07;;;;;;;1.60;1.50;;;3.20;99.90;;;;;;4944978;28;20232;-67
2023/01/28 15:11:38;;;;;;;2.58;2.05;;;3.20;99.90;;;;;;4952220;29;20224;-67
2023/01/28 15:14:12;;;;;;;2.42;1.55;;;3.10;99.90;;;;;;4951684;28;20283;-67
2023/01/28 15:16:39;;;;;;;2.15;2.05;;;3.10;99.90;;;;;;4952409;28;20216;-67
2023/01/28 15:19:08;;;;;;;7.93;1.90;;;3.10;99.90;;;;;;4952546;28;20241;-67
2023/01/28 15:21:37;;;;;;;1.75;1.52;;;3.20;99.90;;;;;;4953654;28;20236;-68
2023/01/28 15:24:04;;;;;;;1.08;1.08;;;3.20;99.90;;;;;;4952706;28;20209;-67
2023/01/28 15:26:33;;;;;;;1.33;1.20;;;3.20;99.90;;;;;;4952152;28;20209;-67
2023/01/28 15:29:00;;;;;;;2.75;2.65;;;3.20;99.90;;;;;;4952060;28;20229;-67
2023/01/28 15:31:29;;;;;;;1.50;1.48;;;3.20;99.90;;;;;;4952555;29;20221;-66
2023/01/28 15:33:57;;;;;;;1.77;1.77;;;3.20;99.90;;;;;;4951690;29;20241;-67
2023/01/28 15:36:25;;;;;;;2.10;1.95;;;3.20;99.90;;;;;;4951087;29;20209;-69
2023/01/28 15:38:54;;;;;;;1.88;1.77;;;3.20;99.90;;;;;;4951389;28;20221;-67
2023/01/28 15:41:23;;;;;;;3.42;3.30;;;3.20;99.90;;;;;;4940640;29;20206;-67
2023/01/28 15:43:52;;;;;;;2.47;2.38;;;3.20;99.90;;;;;;4950904;28;20217;-67
2023/01/28 15:46:19;;;;;;;0.90;0.90;;;3.10;99.90;;;;;;4949877;29;20209;-67
2023/01/28 15:48:49;;;;;;;3.05;2.45;;;3.10;99.90;;;;;;4950424;28;20225;-67
2023/01/28 15:51:22;;;;;;;3.60;2.13;;;3.10;99.90;;;;;;4954744;28;20229;-67
2023/01/28 15:53:52;;;;;;;1.48;1.48;;;3.10;99.90;;;;;;4955650;28;20243;-67
2023/01/28 15:56:27;;;;;;;2.00;2.00;;;3.10;99.90;;;;;;4953314;29;20666;-67
2023/01/28 15:58:54;;;;;;;1.88;1.83;;;3.10;99.90;;;;;;4954815;28;20797;-67
2023/01/28 16:01:22;;;;;;;3.45;2.55;;;3.00;99.90;;;;;;4955056;28;20262;-67
2023/01/28 16:04:02;;;;;;;6.05;5.20;;;3.00;99.90;;;;;;4954223;28;20651;-67
2023/01/28 16:06:36;;;;;;;1.80;1.70;;;3.00;99.90;;;;;;4951320;29;20213;-67
2023/01/28 16:09:06;;;;;;;4.13;1.77;;;2.90;99.90;;;;;;4952347;28;20228;-67
2023/01/28 16:11:43;;;;;;;2.67;2.58;;;2.80;99.90;;;;;;4954241;28;20648;-67
2023/01/28 16:14:21;;;;;;;4.90;4.50;;;2.80;99.90;;;;;;4955049;28;20205;-67
2023/01/28 16:16:48;;;;;;;3.65;2.72;;;2.70;99.90;;;;;;4953567;28;20202;-67
2023/01/28 16:19:30;;;;;;;3.33;2.78;;;2.70;99.90;;;;;;4953525;28;20245;-67
2023/01/28 16:21:56;;;;;;;4.85;4.45;;;2.70;99.90;;;;;;4947002;29;20208;-67
2023/01/28 16:24:25;;;;;;;8.02;2.53;;;2.60;99.90;;;;;;4952604;29;20697;-67
2023/01/28 16:27:02;;;;;;;2.05;1.95;;;2.60;99.90;;;;;;4954378;29;20212;-67
2023/01/28 16:29:30;;;;;;;2.65;1.98;;;2.60;99.90;;;;;;4947908;28;20235;-67
2023/01/28 16:31:58;;;;;;;2.10;1.83;;;2.50;99.90;;;;;;4946704;29;20229;-66
2023/01/28 16:34:27;;;;;;;3.67;3.42;;;2.50;99.90;;;;;;4952736;28;20209;-66
2023/01/28 16:36:53;;;;;;;3.80;3.50;;;2.50;99.90;;;;;;4951479;28;20209;-67
2023/01/28 16:39:20;;;;;;;5.32;3.72;;;2.50;99.90;;;;;;4952030;28;20225;-67
2023/01/28 16:41:48;;;;;;;2.88;2.78;;;2.50;99.90;;;;;;4953980;28;20550;-67
2023/01/28 16:44:17;;;;;;;3.25;2.53;;;2.50;99.90;;;;;;4952907;29;20507;-67
2023/01/28 16:46:44;;;;;;;3.25;2.05;;;2.50;99.90;;;;;;4953518;28;20220;-67
2023/01/28 16:49:12;;;;;;;6.70;4.65;;;2.50;99.90;;;;;;4952497;29;20233;-67
2023/01/28 16:51:42;;;;;;;2.92;2.83;;;2.60;99.90;;;;;;4954588;28;20402;-67
2023/01/28 16:54:13;;;;;;;3.50;3.10;;;2.60;99.90;;;;;;4953858;29;20210;-67
2023/01/28 16:56:40;;;;;;;4.72;4.03;;;2.60;99.90;;;;;;4954195;29;20261;-67
2023/01/28 16:59:08;;;;;;;13.48;4.85;;;2.60;99.90;;;;;;4951516;28;20535;-67
2023/01/28 17:01:36;;;;;;;12.38;4.63;;;2.60;99.90;;;;;;4952961;28;20209;-67
2023/01/28 17:04:08;;;;;;;3.45;3.25;;;2.50;99.90;;;;;;4952735;29;20212;-67
2023/01/28 17:06:36;;;;;;;3.15;1.88;;;2.50;99.90;;;;;;4953900;29;20621;-67
2023/01/28 17:09:03;;;;;;;7.85;7.18;;;2.50;99.90;;;;;;4952444;28;20228;-67
2023/01/28 17:11:30;;;;;;;7.40;3.65;;;2.50;99.90;;;;;;4954365;28;20221;-67
2023/01/28 17:13:56;;;;;;;4.60;2.58;;;2.50;99.90;;;;;;4952394;29;20210;-67
2023/01/28 17:16:23;;;;;;;7.40;5.57;;;2.50;99.90;;;;;;4950154;28;20209;-67
2023/01/28 17:18:52;;;;;;;3.08;2.85;;;2.50;99.90;;;;;;4951877;28;20237;-67
2023/01/28 17:21:18;;;;;;;3.95;3.55;;;2.50;99.90;;;;;;4944146;28;20213;-67
2023/01/28 17:23:45;;;;;;;3.95;3.60;;;2.50;99.90;;;;;;4951364;28;20209;-68
2023/01/28 17:26:13;;;;;;;4.47;4.15;;;2.50;99.90;;;;;;4952249;29;20210;-67
2023/01/28 17:28:41;;;;;;;4.40;3.40;;;2.50;99.90;;;;;;4953072;28;20701;-67
2023/01/28 17:31:08;;;;;;;3.97;3.80;;;2.50;99.90;;;;;;4949900;29;20850;-67
2023/01/28 17:33:35;;;;;;;10.82;4.13;;;2.50;99.90;;;;;;4953204;28;20212;-67
2023/01/28 17:36:03;;;;;;;1.17;1.17;;;2.50;99.90;;;;;;4953490;28;20214;-67
2023/01/28 17:38:30;;;;;;;3.17;2.88;;;2.50;99.90;;;;;;4950593;28;20229;-67
2023/01/28 17:41:01;;;;;;;4.18;3.67;;;2.50;99.90;;;;;;4950845;28;20601;-67
2023/01/28 17:43:28;;;;;;;9.98;4.00;;;2.50;99.90;;;;;;4953941;28;20670;-67
2023/01/28 17:45:55;;;;;;;12.02;6.05;;;2.50;99.90;;;;;;4951157;29;20209;-67
2023/01/28 17:48:22;;;;;;;3.70;3.40;;;2.50;99.90;;;;;;4952041;28;20237;-67
2023/01/28 17:50:49;;;;;;;12.07;6.72;;;2.50;99.90;;;;;;4948474;28;20240;-67
2023/01/28 17:53:17;;;;;;;3.90;3.60;;;2.50;99.90;;;;;;4948593;29;20209;-68
2023/01/28 17:55:44;;;;;;;2.58;1.98;;;2.40;99.90;;;;;;4953711;28;20213;-68
2023/01/28 17:58:10;;;;;;;4.45;3.78;;;2.40;99.90;;;;;;4952992;28;20212;-67
2023/01/28 18:00:37;;;;;;;5.05;4.85;;;2.30;99.90;;;;;;4951753;28;20212;-68
2023/01/28 18:03:04;;;;;;;6.07;5.60;;;2.30;99.90;;;;;;4953041;29;20549;-68
2023/01/28 18:05:31;;;;;;;5.07;4.65;;;2.30;99.90;;;;;;4952209;29;20239;-68
2023/01/28 18:07:57;;;;;;;4.90;4.60;;;2.30;99.90;;;;;;4949586;28;20216;-68
2023/01/28 18:10:25;;;;;;;3.15;3.03;;;2.30;99.90;;;;;;4946620;29;20701;-67
2023/01/28 18:12:52;;;;;;;3.88;3.58;;;2.20;99.90;;;;;;4948284;28;20706;-67
2023/01/28 18:15:19;;;;;;;1.67;1.67;;;2.20;99.90;;;;;;4951533;28;20217;-68
2023/01/28 18:17:46;;;;;;;8.38;5.50;;;2.20;99.90;;;;;;4951315;29;20220;-68